sensor_id;sensor_type;location;lat;lon;timestamp;temperature;humidity
18177;DHT22;9213;50.858;3.964;2022-11-15T00:01:32;14.50;64.10
18177;DHT22;9213;50.858;3.964;2022-11-15T00:03:59;14.50;64.10
18177;DHT22;9213;50.858;3.964;2022-11-15T00:06:27;14.60;64.10
18177;DHT22;9213;50.858;3.964;2022-11-15T00:08:54;14.60;64.10
18177;DHT22;9213;50.858;3.964;2022-11-15T00:11:21;14.60;64.10
18177;DHT22;9213;50.858;3.964;2022-11-15T00:13:48;14.60;64.20
18177;DHT22;9213;50.858;3.964;2022-11-15T00:16:15;14.70;64.40
18177;DHT22;9213;50.858;3.964;2022-11-15T00:18:42;14.70;64.30
18177;DHT22;9213;50.858;3.964;2022-11-15T00:21:11;14.70;64.30
18177;DHT22;9213;50.858;3.964;2022-11-15T00:23:40;14.80;64.40
18177;DHT22;9213;50.858;3.964;2022-11-15T00:26:08;14.80;64.40
18177;DHT22;9213;50.858;3.964;2022-11-15T00:28:37;14.80;64.50
18177;DHT22;9213;50.858;3.964;2022-11-15T00:31:06;14.80;64.50
18177;DHT22;9213;50.858;3.964;2022-11-15T00:33:33;14.90;64.60
18177;DHT22;9213;50.858;3.964;2022-11-15T00:36:01;14.90;64.50
18177;DHT22;9213;50.858;3.964;2022-11-15T00:38:32;14.90;64.50
18177;DHT22;9213;50.858;3.964;2022-11-15T00:41:02;14.90;64.60
18177;DHT22;9213;50.858;3.964;2022-11-15T00:43:29;14.90;64.60
18177;DHT22;9213;50.858;3.964;2022-11-15T00:45:56;14.90;64.60
18177;DHT22;9213;50.858;3.964;2022-11-15T00:48:23;14.90;64.50
18177;DHT22;9213;50.858;3.964;2022-11-15T00:50:50;14.90;64.50
18177;DHT22;9213;50.858;3.964;2022-11-15T00:53:17;14.90;64.60
18177;DHT22;9213;50.858;3.964;2022-11-15T00:55:44;14.90;64.60
18177;DHT22;9213;50.858;3.964;2022-11-15T00:58:12;15.00;64.60
18177;DHT22;9213;50.858;3.964;2022-11-15T01:00:39;15.00;64.60
18177;DHT22;9213;50.858;3.964;2022-11-15T01:03:07;15.00;64.50
18177;DHT22;9213;50.858;3.964;2022-11-15T01:05:36;15.00;64.40
18177;DHT22;9213;50.858;3.964;2022-11-15T01:08:03;15.00;64.50
18177;DHT22;9213;50.858;3.964;2022-11-15T01:10:30;15.10;64.50
18177;DHT22;9213;50.858;3.964;2022-11-15T01:12:57;15.10;64.50
18177;DHT22;9213;50.858;3.964;2022-11-15T01:15:25;15.10;64.50
18177;DHT22;9213;50.858;3.964;2022-11-15T01:17:52;15.20;64.50
18177;DHT22;9213;50.858;3.964;2022-11-15T01:20:20;15.20;64.50
18177;DHT22;9213;50.858;3.964;2022-11-15T01:22:47;15.20;64.60
18177;DHT22;9213;50.858;3.964;2022-11-15T01:25:14;15.10;64.70
18177;DHT22;9213;50.858;3.964;2022-11-15T01:27:41;15.10;64.70
18177;DHT22;9213;50.858;3.964;2022-11-15T01:30:08;15.20;64.60
18177;DHT22;9213;50.858;3.964;2022-11-15T01:32:37;15.20;64.60
18177;DHT22;9213;50.858;3.964;2022-11-15T01:35:04;15.20;64.70
18177;DHT22;9213;50.858;3.964;2022-11-15T01:37:31;15.10;64.70
18177;DHT22;9213;50.858;3.964;2022-11-15T01:39:58;15.10;64.80
18177;DHT22;9213;50.858;3.964;2022-11-15T01:42:25;15.10;64.90
18177;DHT22;9213;50.858;3.964;2022-11-15T01:44:52;15.10;65.00
18177;DHT22;9213;50.858;3.964;2022-11-15T01:47:22;15.10;65.10
18177;DHT22;9213;50.858;3.964;2022-11-15T01:49:56;15.10;65.00
18177;DHT22;9213;50.858;3.964;2022-11-15T01:52:27;15.10;65.10
18177;DHT22;9213;50.858;3.964;2022-11-15T01:54:59;15.10;64.90
18177;DHT22;9213;50.858;3.964;2022-11-15T01:57:28;15.10;64.80
18177;DHT22;9213;50.858;3.964;2022-11-15T01:59:56;15.10;64.80
18177;DHT22;9213;50.858;3.964;2022-11-15T02:02:23;15.20;64.80
18177;DHT22;9213;50.858;3.964;2022-11-15T02:04:52;15.10;64.70
18177;DHT22;9213;50.858;3.964;2022-11-15T02:07:20;15.20;64.70
18177;DHT22;9213;50.858;3.964;2022-11-15T02:09:48;15.20;64.70
18177;DHT22;9213;50.858;3.964;2022-11-15T02:12:19;15.20;64.70
18177;DHT22;9213;50.858;3.964;2022-11-15T02:14:49;15.20;64.80
18177;DHT22;9213;50.858;3.964;2022-11-15T02:17:31;15.10;64.80
18177;DHT22;9213;50.858;3.964;2022-11-15T02:20:23;15.20;64.90
18177;DHT22;9213;50.858;3.964;2022-11-15T02:23:11;15.20;64.90
18177;DHT22;9213;50.858;3.964;2022-11-15T02:25:47;15.10;64.80
18177;DHT22;9213;50.858;3.964;2022-11-15T02:28:44;15.10;64.80
18177;DHT22;9213;50.858;3.964;2022-11-15T02:31:22;15.10;65.00
18177;DHT22;9213;50.858;3.964;2022-11-15T02:33:56;15.10;64.80
18177;DHT22;9213;50.858;3.964;2022-11-15T02:36:34;15.10;64.70
18177;DHT22;9213;50.858;3.964;2022-11-15T02:39:06;15.10;64.90
18177;DHT22;9213;50.858;3.964;2022-11-15T02:41:40;15.00;64.70
18177;DHT22;9213;50.858;3.964;2022-11-15T02:44:15;15.10;64.90
18177;DHT22;9213;50.858;3.964;2022-11-15T02:46:47;15.00;64.80
18177;DHT22;9213;50.858;3.964;2022-11-15T02:49:35;15.00;64.90
18177;DHT22;9213;50.858;3.964;2022-11-15T02:52:04;15.00;64.80
18177;DHT22;9213;50.858;3.964;2022-11-15T02:54:32;15.00;64.80
18177;DHT22;9213;50.858;3.964;2022-11-15T02:57:04;15.00;64.90
18177;DHT22;9213;50.858;3.964;2022-11-15T02:59:56;14.90;64.80
18177;DHT22;9213;50.858;3.964;2022-11-15T03:05:29;15.00;64.70
18177;DHT22;9213;50.858;3.964;2022-11-15T03:08:02;15.00;64.60
18177;DHT22;9213;50.858;3.964;2022-11-15T03:10:39;15.00;64.70
18177;DHT22;9213;50.858;3.964;2022-11-15T03:13:16;15.00;64.70
18177;DHT22;9213;50.858;3.964;2022-11-15T03:15:52;15.00;64.60
18177;DHT22;9213;50.858;3.964;2022-11-15T03:18:26;15.00;64.60
18177;DHT22;9213;50.858;3.964;2022-11-15T03:20:54;15.00;64.50
18177;DHT22;9213;50.858;3.964;2022-11-15T03:23:22;15.00;64.40
18177;DHT22;9213;50.858;3.964;2022-11-15T03:25:51;14.90;64.50
18177;DHT22;9213;50.858;3.964;2022-11-15T03:28:23;14.90;65.30
18177;DHT22;9213;50.858;3.964;2022-11-15T03:30:53;14.90;64.70
18177;DHT22;9213;50.858;3.964;2022-11-15T03:33:22;14.90;64.50
18177;DHT22;9213;50.858;3.964;2022-11-15T03:35:50;14.90;64.40
18177;DHT22;9213;50.858;3.964;2022-11-15T03:38:22;14.90;64.30
18177;DHT22;9213;50.858;3.964;2022-11-15T03:40:54;14.90;64.30
18177;DHT22;9213;50.858;3.964;2022-11-15T03:43:30;14.90;64.20
18177;DHT22;9213;50.858;3.964;2022-11-15T03:46:04;14.80;64.20
18177;DHT22;9213;50.858;3.964;2022-11-15T03:48:37;14.80;64.10
18177;DHT22;9213;50.858;3.964;2022-11-15T03:51:06;14.80;64.30
18177;DHT22;9213;50.858;3.964;2022-11-15T03:53:33;14.80;64.90
18177;DHT22;9213;50.858;3.964;2022-11-15T03:56:00;14.80;64.10
18177;DHT22;9213;50.858;3.964;2022-11-15T03:58:27;14.80;64.10
18177;DHT22;9213;50.858;3.964;2022-11-15T04:00:53;14.80;64.00
18177;DHT22;9213;50.858;3.964;2022-11-15T04:03:20;14.80;63.90
18177;DHT22;9213;50.858;3.964;2022-11-15T04:05:49;14.80;63.90
18177;DHT22;9213;50.858;3.964;2022-11-15T04:08:15;14.70;63.80
18177;DHT22;9213;50.858;3.964;2022-11-15T04:10:42;14.80;63.80
18177;DHT22;9213;50.858;3.964;2022-11-15T04:13:09;14.70;63.70
18177;DHT22;9213;50.858;3.964;2022-11-15T04:15:36;14.70;63.60
18177;DHT22;9213;50.858;3.964;2022-11-15T04:18:04;14.70;63.60
18177;DHT22;9213;50.858;3.964;2022-11-15T04:20:32;14.70;63.50
18177;DHT22;9213;50.858;3.964;2022-11-15T04:23:19;14.70;63.50
18177;DHT22;9213;50.858;3.964;2022-11-15T04:26:05;14.60;63.20
18177;DHT22;9213;50.858;3.964;2022-11-15T04:28:33;14.50;63.20
18177;DHT22;9213;50.858;3.964;2022-11-15T04:31:01;14.50;63.30
18177;DHT22;9213;50.858;3.964;2022-11-15T04:33:28;14.40;63.30
18177;DHT22;9213;50.858;3.964;2022-11-15T04:35:54;14.40;63.30
18177;DHT22;9213;50.858;3.964;2022-11-15T04:38:40;14.40;63.40
18177;DHT22;9213;50.858;3.964;2022-11-15T04:41:07;14.30;63.40
18177;DHT22;9213;50.858;3.964;2022-11-15T04:43:34;14.30;63.50
18177;DHT22;9213;50.858;3.964;2022-11-15T04:46:01;14.20;63.50
18177;DHT22;9213;50.858;3.964;2022-11-15T04:48:28;14.20;63.60
18177;DHT22;9213;50.858;3.964;2022-11-15T04:50:54;14.20;63.60
18177;DHT22;9213;50.858;3.964;2022-11-15T04:53:21;14.20;63.70
18177;DHT22;9213;50.858;3.964;2022-11-15T04:55:50;14.20;63.70
18177;DHT22;9213;50.858;3.964;2022-11-15T04:58:17;14.20;63.60
18177;DHT22;9213;50.858;3.964;2022-11-15T05:00:44;14.20;63.60
18177;DHT22;9213;50.858;3.964;2022-11-15T05:03:10;14.20;63.50
18177;DHT22;9213;50.858;3.964;2022-11-15T05:05:55;14.20;63.40
18177;DHT22;9213;50.858;3.964;2022-11-15T05:08:22;14.20;63.20
18177;DHT22;9213;50.858;3.964;2022-11-15T05:10:50;14.10;63.20
18177;DHT22;9213;50.858;3.964;2022-11-15T05:13:17;14.10;63.10
18177;DHT22;9213;50.858;3.964;2022-11-15T05:15:44;14.00;62.90
18177;DHT22;9213;50.858;3.964;2022-11-15T05:18:11;13.90;63.70
18177;DHT22;9213;50.858;3.964;2022-11-15T05:20:38;13.90;63.00
18177;DHT22;9213;50.858;3.964;2022-11-15T05:23:05;13.80;63.30
18177;DHT22;9213;50.858;3.964;2022-11-15T05:25:32;13.80;63.60
18177;DHT22;9213;50.858;3.964;2022-11-15T05:28:00;13.90;63.90
18177;DHT22;9213;50.858;3.964;2022-11-15T05:30:27;13.90;64.00
18177;DHT22;9213;50.858;3.964;2022-11-15T05:32:54;14.00;64.80
18177;DHT22;9213;50.858;3.964;2022-11-15T05:35:29;14.00;64.00
18177;DHT22;9213;50.858;3.964;2022-11-15T05:37:57;14.10;64.20
18177;DHT22;9213;50.858;3.964;2022-11-15T05:40:24;14.10;64.00
18177;DHT22;9213;50.858;3.964;2022-11-15T05:42:51;14.10;63.90
18177;DHT22;9213;50.858;3.964;2022-11-15T05:45:19;14.10;63.80
18177;DHT22;9213;50.858;3.964;2022-11-15T05:47:48;14.20;63.90
18177;DHT22;9213;50.858;3.964;2022-11-15T05:50:18;14.20;63.80
18177;DHT22;9213;50.858;3.964;2022-11-15T05:52:46;14.20;63.80
18177;DHT22;9213;50.858;3.964;2022-11-15T05:55:14;14.20;63.70
18177;DHT22;9213;50.858;3.964;2022-11-15T05:57:41;14.20;63.60
18177;DHT22;9213;50.858;3.964;2022-11-15T06:00:09;14.20;63.50
18177;DHT22;9213;50.858;3.964;2022-11-15T06:02:37;14.30;63.50
18177;DHT22;9213;50.858;3.964;2022-11-15T06:05:04;14.20;63.20
18177;DHT22;9213;50.858;3.964;2022-11-15T06:07:31;14.20;63.00
18177;DHT22;9213;50.858;3.964;2022-11-15T06:09:58;14.10;62.70
18177;DHT22;9213;50.858;3.964;2022-11-15T06:12:25;14.10;62.60
18177;DHT22;9213;50.858;3.964;2022-11-15T06:14:52;14.00;62.40
18177;DHT22;9213;50.858;3.964;2022-11-15T06:17:19;13.90;62.50
18177;DHT22;9213;50.858;3.964;2022-11-15T06:19:47;13.80;62.40
18177;DHT22;9213;50.858;3.964;2022-11-15T06:22:14;13.70;62.50
18177;DHT22;9213;50.858;3.964;2022-11-15T06:24:41;13.60;62.40
18177;DHT22;9213;50.858;3.964;2022-11-15T06:27:10;13.50;62.50
18177;DHT22;9213;50.858;3.964;2022-11-15T06:29:37;13.40;62.40
18177;DHT22;9213;50.858;3.964;2022-11-15T06:32:04;13.40;62.40
18177;DHT22;9213;50.858;3.964;2022-11-15T06:34:31;13.40;62.60
18177;DHT22;9213;50.858;3.964;2022-11-15T06:37:00;13.30;62.60
18177;DHT22;9213;50.858;3.964;2022-11-15T06:39:26;13.20;62.60
18177;DHT22;9213;50.858;3.964;2022-11-15T06:41:54;13.20;62.60
18177;DHT22;9213;50.858;3.964;2022-11-15T06:44:21;13.10;62.60
18177;DHT22;9213;50.858;3.964;2022-11-15T06:46:47;13.10;62.60
18177;DHT22;9213;50.858;3.964;2022-11-15T06:49:14;13.10;62.70
18177;DHT22;9213;50.858;3.964;2022-11-15T06:51:42;13.00;62.80
18177;DHT22;9213;50.858;3.964;2022-11-15T06:54:10;13.00;62.90
18177;DHT22;9213;50.858;3.964;2022-11-15T06:56:37;12.90;63.00
18177;DHT22;9213;50.858;3.964;2022-11-15T06:59:04;12.90;63.10
18177;DHT22;9213;50.858;3.964;2022-11-15T07:01:31;12.90;63.20
18177;DHT22;9213;50.858;3.964;2022-11-15T07:03:58;12.90;63.30
18177;DHT22;9213;50.858;3.964;2022-11-15T07:06:25;12.90;63.40
18177;DHT22;9213;50.858;3.964;2022-11-15T07:08:52;12.80;63.30
18177;DHT22;9213;50.858;3.964;2022-11-15T07:11:20;12.80;63.40
18177;DHT22;9213;50.858;3.964;2022-11-15T07:13:47;12.90;63.60
18177;DHT22;9213;50.858;3.964;2022-11-15T07:16:14;12.80;63.60
18177;DHT22;9213;50.858;3.964;2022-11-15T07:18:41;12.80;63.80
18177;DHT22;9213;50.858;3.964;2022-11-15T07:21:09;12.80;63.90
18177;DHT22;9213;50.858;3.964;2022-11-15T07:23:37;12.80;64.00
18177;DHT22;9213;50.858;3.964;2022-11-15T07:26:04;12.90;64.10
18177;DHT22;9213;50.858;3.964;2022-11-15T07:28:33;12.90;64.10
18177;DHT22;9213;50.858;3.964;2022-11-15T07:31:02;12.90;64.30
18177;DHT22;9213;50.858;3.964;2022-11-15T07:33:29;13.00;64.40
18177;DHT22;9213;50.858;3.964;2022-11-15T07:35:59;13.00;64.30
18177;DHT22;9213;50.858;3.964;2022-11-15T07:38:27;13.10;65.20
18177;DHT22;9213;50.858;3.964;2022-11-15T07:40:59;13.10;64.30
18177;DHT22;9213;50.858;3.964;2022-11-15T07:43:27;13.10;64.40
18177;DHT22;9213;50.858;3.964;2022-11-15T07:46:03;13.20;64.20
18177;DHT22;9213;50.858;3.964;2022-11-15T07:48:30;13.20;64.20
18177;DHT22;9213;50.858;3.964;2022-11-15T07:50:57;13.30;64.10
18177;DHT22;9213;50.858;3.964;2022-11-15T07:53:24;13.30;64.10
18177;DHT22;9213;50.858;3.964;2022-11-15T07:55:51;13.40;64.10
18177;DHT22;9213;50.858;3.964;2022-11-15T07:58:19;13.40;63.90
18177;DHT22;9213;50.858;3.964;2022-11-15T08:00:46;13.40;63.80
18177;DHT22;9213;50.858;3.964;2022-11-15T08:03:15;13.50;63.70
18177;DHT22;9213;50.858;3.964;2022-11-15T08:05:43;13.60;63.60
18177;DHT22;9213;50.858;3.964;2022-11-15T08:08:11;13.60;63.40
18177;DHT22;9213;50.858;3.964;2022-11-15T08:10:38;13.70;63.20
18177;DHT22;9213;50.858;3.964;2022-11-15T08:13:06;13.80;63.00
18177;DHT22;9213;50.858;3.964;2022-11-15T08:15:34;13.90;62.70
18177;DHT22;9213;50.858;3.964;2022-11-15T08:18:03;14.00;62.20
18177;DHT22;9213;50.858;3.964;2022-11-15T08:20:32;14.20;61.80
18177;DHT22;9213;50.858;3.964;2022-11-15T08:23:01;14.20;61.30
18177;DHT22;9213;50.858;3.964;2022-11-15T08:25:30;14.30;61.00
18177;DHT22;9213;50.858;3.964;2022-11-15T08:27:59;14.40;60.50
18177;DHT22;9213;50.858;3.964;2022-11-15T08:30:26;14.40;60.30
18177;DHT22;9213;50.858;3.964;2022-11-15T08:32:55;14.50;60.30
18177;DHT22;9213;50.858;3.964;2022-11-15T08:35:23;14.50;60.10
18177;DHT22;9213;50.858;3.964;2022-11-15T08:37:52;14.60;59.60
18177;DHT22;9213;50.858;3.964;2022-11-15T08:40:19;14.60;59.40
18177;DHT22;9213;50.858;3.964;2022-11-15T08:42:47;14.70;59.40
18177;DHT22;9213;50.858;3.964;2022-11-15T08:45:14;14.70;59.30
18177;DHT22;9213;50.858;3.964;2022-11-15T08:47:41;14.70;59.30
18177;DHT22;9213;50.858;3.964;2022-11-15T08:50:08;14.80;58.90
18177;DHT22;9213;50.858;3.964;2022-11-15T08:52:36;14.80;58.60
18177;DHT22;9213;50.858;3.964;2022-11-15T08:55:05;14.80;58.40
18177;DHT22;9213;50.858;3.964;2022-11-15T08:57:32;14.80;58.50
18177;DHT22;9213;50.858;3.964;2022-11-15T08:59:59;14.90;58.80
18177;DHT22;9213;50.858;3.964;2022-11-15T09:02:26;15.10;58.80
18177;DHT22;9213;50.858;3.964;2022-11-15T09:04:53;15.30;58.20
18177;DHT22;9213;50.858;3.964;2022-11-15T09:07:19;15.60;57.50
18177;DHT22;9213;50.858;3.964;2022-11-15T09:09:46;15.90;56.70
18177;DHT22;9213;50.858;3.964;2022-11-15T09:12:15;16.10;56.10
18177;DHT22;9213;50.858;3.964;2022-11-15T09:14:41;16.30;55.30
18177;DHT22;9213;50.858;3.964;2022-11-15T09:17:09;16.50;55.00
18177;DHT22;9213;50.858;3.964;2022-11-15T09:19:36;16.70;54.40
18177;DHT22;9213;50.858;3.964;2022-11-15T09:22:05;16.90;53.80
18177;DHT22;9213;50.858;3.964;2022-11-15T09:24:33;17.00;53.10
18177;DHT22;9213;50.858;3.964;2022-11-15T09:27:00;17.10;53.00
18177;DHT22;9213;50.858;3.964;2022-11-15T09:29:28;17.30;52.70
18177;DHT22;9213;50.858;3.964;2022-11-15T09:31:55;17.40;52.20
18177;DHT22;9213;50.858;3.964;2022-11-15T09:34:22;17.50;51.70
18177;DHT22;9213;50.858;3.964;2022-11-15T09:36:49;17.60;52.10
18177;DHT22;9213;50.858;3.964;2022-11-15T09:39:16;17.60;51.00
18177;DHT22;9213;50.858;3.964;2022-11-15T09:45:03;17.70;51.10
18177;DHT22;9213;50.858;3.964;2022-11-15T09:47:53;17.60;50.90
18177;DHT22;9213;50.858;3.964;2022-11-15T09:50:31;17.60;51.30
18177;DHT22;9213;50.858;3.964;2022-11-15T09:52:58;17.50;51.10
18177;DHT22;9213;50.858;3.964;2022-11-15T09:55:32;17.50;51.10
18177;DHT22;9213;50.858;3.964;2022-11-15T09:58:07;17.50;51.40
18177;DHT22;9213;50.858;3.964;2022-11-15T10:00:40;17.60;51.50
18177;DHT22;9213;50.858;3.964;2022-11-15T10:03:12;17.80;50.60
18177;DHT22;9213;50.858;3.964;2022-11-15T10:05:41;18.00;50.00
18177;DHT22;9213;50.858;3.964;2022-11-15T10:08:30;18.00;49.40
18177;DHT22;9213;50.858;3.964;2022-11-15T10:10:59;18.10;49.50
18177;DHT22;9213;50.858;3.964;2022-11-15T10:13:31;18.10;49.50
18177;DHT22;9213;50.858;3.964;2022-11-15T10:16:07;18.10;49.30
18177;DHT22;9213;50.858;3.964;2022-11-15T10:18:39;18.10;49.10
18177;DHT22;9213;50.858;3.964;2022-11-15T10:21:15;18.10;49.30
18177;DHT22;9213;50.858;3.964;2022-11-15T10:23:43;18.20;48.80
18177;DHT22;9213;50.858;3.964;2022-11-15T10:26:13;18.20;48.70
18177;DHT22;9213;50.858;3.964;2022-11-15T10:28:42;18.20;48.80
18177;DHT22;9213;50.858;3.964;2022-11-15T10:31:22;18.30;48.70
18177;DHT22;9213;50.858;3.964;2022-11-15T10:33:49;18.40;48.40
18177;DHT22;9213;50.858;3.964;2022-11-15T10:36:19;18.40;48.00
18177;DHT22;9213;50.858;3.964;2022-11-15T10:38:55;18.40;47.80
18177;DHT22;9213;50.858;3.964;2022-11-15T10:41:30;18.40;47.60
18177;DHT22;9213;50.858;3.964;2022-11-15T10:44:25;18.40;47.30
18177;DHT22;9213;50.858;3.964;2022-11-15T10:50:04;18.40;47.90
18177;DHT22;9213;50.858;3.964;2022-11-15T10:52:34;18.20;47.60
18177;DHT22;9213;50.858;3.964;2022-11-15T10:55:05;18.20;47.80
18177;DHT22;9213;50.858;3.964;2022-11-15T10:57:39;18.20;47.60
18177;DHT22;9213;50.858;3.964;2022-11-15T11:00:26;18.30;47.90
18177;DHT22;9213;50.858;3.964;2022-11-15T11:02:59;18.40;47.30
18177;DHT22;9213;50.858;3.964;2022-11-15T11:05:28;18.50;47.10
18177;DHT22;9213;50.858;3.964;2022-11-15T11:07:58;18.50;46.80
18177;DHT22;9213;50.858;3.964;2022-11-15T11:10:27;18.60;47.00
18177;DHT22;9213;50.858;3.964;2022-11-15T11:12:54;18.70;46.60
18177;DHT22;9213;50.858;3.964;2022-11-15T11:15:23;18.70;46.40
18177;DHT22;9213;50.858;3.964;2022-11-15T11:18:02;18.60;46.60
18177;DHT22;9213;50.858;3.964;2022-11-15T11:20:36;18.60;46.40
18177;DHT22;9213;50.858;3.964;2022-11-15T11:23:20;18.60;46.40
18177;DHT22;9213;50.858;3.964;2022-11-15T11:25:52;18.60;46.70
18177;DHT22;9213;50.858;3.964;2022-11-15T11:28:33;18.50;46.70
18177;DHT22;9213;50.858;3.964;2022-11-15T11:31:18;18.50;47.10
18177;DHT22;9213;50.858;3.964;2022-11-15T11:33:54;18.40;47.00
18177;DHT22;9213;50.858;3.964;2022-11-15T11:36:31;18.40;46.90
18177;DHT22;9213;50.858;3.964;2022-11-15T11:39:17;18.40;47.10
18177;DHT22;9213;50.858;3.964;2022-11-15T11:41:58;18.40;47.40
18177;DHT22;9213;50.858;3.964;2022-11-15T11:44:34;18.50;48.50
18177;DHT22;9213;50.858;3.964;2022-11-15T11:47:06;18.30;47.50
18177;DHT22;9213;50.858;3.964;2022-11-15T11:49:42;18.30;47.20
18177;DHT22;9213;50.858;3.964;2022-11-15T11:52:14;18.30;47.50
18177;DHT22;9213;50.858;3.964;2022-11-15T11:54:50;18.20;47.60
18177;DHT22;9213;50.858;3.964;2022-11-15T11:57:27;18.20;47.80
18177;DHT22;9213;50.858;3.964;2022-11-15T12:00:00;18.30;47.80
18177;DHT22;9213;50.858;3.964;2022-11-15T12:02:31;18.20;47.90
18177;DHT22;9213;50.858;3.964;2022-11-15T12:05:09;18.20;48.20
18177;DHT22;9213;50.858;3.964;2022-11-15T12:07:39;18.20;48.60
18177;DHT22;9213;50.858;3.964;2022-11-15T12:10:17;18.20;48.40
18177;DHT22;9213;50.858;3.964;2022-11-15T12:12:53;18.20;48.60
18177;DHT22;9213;50.858;3.964;2022-11-15T12:15:23;18.20;48.70
18177;DHT22;9213;50.858;3.964;2022-11-15T12:17:51;18.20;48.60
18177;DHT22;9213;50.858;3.964;2022-11-15T12:20:22;18.20;48.40
18177;DHT22;9213;50.858;3.964;2022-11-15T12:22:54;18.20;48.50
18177;DHT22;9213;50.858;3.964;2022-11-15T12:25:25;18.20;48.50
18177;DHT22;9213;50.858;3.964;2022-11-15T12:27:57;18.20;48.80
18177;DHT22;9213;50.858;3.964;2022-11-15T12:30:42;18.20;48.60
18177;DHT22;9213;50.858;3.964;2022-11-15T12:33:29;18.30;48.70
18177;DHT22;9213;50.858;3.964;2022-11-15T12:36:00;18.30;48.60
18177;DHT22;9213;50.858;3.964;2022-11-15T12:38:51;18.30;48.60
18177;DHT22;9213;50.858;3.964;2022-11-15T12:41:20;18.40;49.00
18177;DHT22;9213;50.858;3.964;2022-11-15T12:43:48;18.20;48.60
18177;DHT22;9213;50.858;3.964;2022-11-15T12:46:58;18.20;48.60
18177;DHT22;9213;50.858;3.964;2022-11-15T12:49:43;18.30;49.00
18177;DHT22;9213;50.858;3.964;2022-11-15T12:52:11;18.40;49.20
18177;DHT22;9213;50.858;3.964;2022-11-15T12:54:59;18.30;48.70
18177;DHT22;9213;50.858;3.964;2022-11-15T12:57:36;18.40;49.00
18177;DHT22;9213;50.858;3.964;2022-11-15T13:03:26;18.30;49.20
18177;DHT22;9213;50.858;3.964;2022-11-15T13:06:33;18.30;49.20
18177;DHT22;9213;50.858;3.964;2022-11-15T13:08:58;18.30;49.30
18177;DHT22;9213;50.858;3.964;2022-11-15T13:11:50;18.20;49.10
18177;DHT22;9213;50.858;3.964;2022-11-15T13:14:48;18.30;49.80
18177;DHT22;9213;50.858;3.964;2022-11-15T13:17:34;18.30;49.80
18177;DHT22;9213;50.858;3.964;2022-11-15T13:20:22;18.20;49.70
18177;DHT22;9213;50.858;3.964;2022-11-15T13:22:51;18.20;49.80
18177;DHT22;9213;50.858;3.964;2022-11-15T13:28:30;18.10;50.10
18177;DHT22;9213;50.858;3.964;2022-11-15T13:31:00;18.00;49.90
18177;DHT22;9213;50.858;3.964;2022-11-15T13:33:31;18.00;50.20
18177;DHT22;9213;50.858;3.964;2022-11-15T13:36:01;18.00;50.40
18177;DHT22;9213;50.858;3.964;2022-11-15T13:38:30;17.90;50.60
18177;DHT22;9213;50.858;3.964;2022-11-15T13:40:59;17.90;51.50
18177;DHT22;9213;50.858;3.964;2022-11-15T13:43:32;18.00;50.70
18177;DHT22;9213;50.858;3.964;2022-11-15T13:46:10;18.00;50.90
18177;DHT22;9213;50.858;3.964;2022-11-15T13:48:38;18.00;50.90
18177;DHT22;9213;50.858;3.964;2022-11-15T13:51:08;18.00;50.70
18177;DHT22;9213;50.858;3.964;2022-11-15T13:53:39;17.90;50.80
18177;DHT22;9213;50.858;3.964;2022-11-15T13:56:07;17.90;50.90
18177;DHT22;9213;50.858;3.964;2022-11-15T13:58:37;17.90;51.00
18177;DHT22;9213;50.858;3.964;2022-11-15T14:01:05;17.90;50.90
18177;DHT22;9213;50.858;3.964;2022-11-15T14:03:37;17.80;51.10
18177;DHT22;9213;50.858;3.964;2022-11-15T14:06:12;17.80;51.30
18177;DHT22;9213;50.858;3.964;2022-11-15T14:08:41;17.70;51.70
18177;DHT22;9213;50.858;3.964;2022-11-15T14:11:14;17.60;51.80
18177;DHT22;9213;50.858;3.964;2022-11-15T14:14:01;17.50;52.00
18177;DHT22;9213;50.858;3.964;2022-11-15T14:16:33;17.50;52.60
18177;DHT22;9213;50.858;3.964;2022-11-15T14:19:02;17.30;53.70
18177;DHT22;9213;50.858;3.964;2022-11-15T14:21:30;17.30;53.50
18177;DHT22;9213;50.858;3.964;2022-11-15T14:24:15;17.20;53.60
18177;DHT22;9213;50.858;3.964;2022-11-15T14:26:42;17.30;54.00
18177;DHT22;9213;50.858;3.964;2022-11-15T14:29:23;17.10;54.10
18177;DHT22;9213;50.858;3.964;2022-11-15T14:31:50;17.10;54.30
18177;DHT22;9213;50.858;3.964;2022-11-15T14:34:17;17.00;54.40
18177;DHT22;9213;50.858;3.964;2022-11-15T14:36:44;16.90;54.80
18177;DHT22;9213;50.858;3.964;2022-11-15T14:39:11;16.90;55.10
18177;DHT22;9213;50.858;3.964;2022-11-15T14:41:38;16.80;55.50
18177;DHT22;9213;50.858;3.964;2022-11-15T14:44:06;16.70;55.70
18177;DHT22;9213;50.858;3.964;2022-11-15T14:46:34;16.60;56.10
18177;DHT22;9213;50.858;3.964;2022-11-15T14:49:01;16.60;56.40
18177;DHT22;9213;50.858;3.964;2022-11-15T14:51:28;16.50;56.70
18177;DHT22;9213;50.858;3.964;2022-11-15T14:53:55;16.50;57.00
18177;DHT22;9213;50.858;3.964;2022-11-15T14:56:21;16.40;57.20
18177;DHT22;9213;50.858;3.964;2022-11-15T14:58:48;16.40;57.30
18177;DHT22;9213;50.858;3.964;2022-11-15T15:01:19;16.30;57.70
18177;DHT22;9213;50.858;3.964;2022-11-15T15:03:47;16.30;58.00
18177;DHT22;9213;50.858;3.964;2022-11-15T15:06:17;16.30;58.20
18177;DHT22;9213;50.858;3.964;2022-11-15T15:08:44;16.30;58.40
18177;DHT22;9213;50.858;3.964;2022-11-15T15:11:14;16.20;58.60
18177;DHT22;9213;50.858;3.964;2022-11-15T15:13:41;16.20;58.80
18177;DHT22;9213;50.858;3.964;2022-11-15T15:16:09;16.20;58.90
18177;DHT22;9213;50.858;3.964;2022-11-15T15:18:35;16.10;59.20
18177;DHT22;9213;50.858;3.964;2022-11-15T15:21:15;16.10;59.40
18177;DHT22;9213;50.858;3.964;2022-11-15T15:23:43;16.10;59.70
18177;DHT22;9213;50.858;3.964;2022-11-15T15:26:10;16.10;59.80
18177;DHT22;9213;50.858;3.964;2022-11-15T15:28:37;16.00;59.90
18177;DHT22;9213;50.858;3.964;2022-11-15T15:31:05;16.00;60.20
18177;DHT22;9213;50.858;3.964;2022-11-15T15:33:32;16.00;60.40
18177;DHT22;9213;50.858;3.964;2022-11-15T15:35:59;16.00;60.60
18177;DHT22;9213;50.858;3.964;2022-11-15T15:38:27;16.00;60.70
18177;DHT22;9213;50.858;3.964;2022-11-15T15:40:54;16.00;60.90
18177;DHT22;9213;50.858;3.964;2022-11-15T15:43:21;15.90;60.90
18177;DHT22;9213;50.858;3.964;2022-11-15T15:45:48;16.00;61.30
18177;DHT22;9213;50.858;3.964;2022-11-15T15:48:16;15.90;61.40
18177;DHT22;9213;50.858;3.964;2022-11-15T15:50:44;15.90;61.50
18177;DHT22;9213;50.858;3.964;2022-11-15T15:53:12;15.90;61.50
18177;DHT22;9213;50.858;3.964;2022-11-15T15:55:40;15.90;62.60
18177;DHT22;9213;50.858;3.964;2022-11-15T15:58:07;16.00;62.00
18177;DHT22;9213;50.858;3.964;2022-11-15T16:00:34;15.90;61.90
18177;DHT22;9213;50.858;3.964;2022-11-15T16:03:02;16.00;62.10
18177;DHT22;9213;50.858;3.964;2022-11-15T16:05:29;15.90;62.10
18177;DHT22;9213;50.858;3.964;2022-11-15T16:07:56;15.90;62.40
18177;DHT22;9213;50.858;3.964;2022-11-15T16:10:24;15.90;62.50
18177;DHT22;9213;50.858;3.964;2022-11-15T16:12:53;16.00;62.50
18177;DHT22;9213;50.858;3.964;2022-11-15T16:15:21;15.90;62.60
18177;DHT22;9213;50.858;3.964;2022-11-15T16:17:51;16.00;62.70
18177;DHT22;9213;50.858;3.964;2022-11-15T16:20:29;15.90;62.80
18177;DHT22;9213;50.858;3.964;2022-11-15T16:22:58;15.90;62.90